Time;durP1;ratioP1;P1;durP2;ratioP2;P2;SDS_P1;SDS_P2;PMS_P1;PMS_P2;Temp;Humidity;BMP_temperature;BMP_pressure;BME280_temperature;BME280_humidity;BME280_pressure;Samples;Min_cycle;Max_cycle;Signal;HPM_P1;HPM_P2
2022/07/05 00:00:19;;;;;;;10.77;2.47;;;;;;;;;;5033798;28;20466;-73
2022/07/05 00:02:45;;;;;;;9.57;2.15;;;;;;;;;;5032992;28;20705;-74
2022/07/05 00:05:11;;;;;;;9.70;2.40;;;;;;;;;;5033424;28;20025;-75
2022/07/05 00:07:37;;;;;;;7.38;2.00;;;;;;;;;;5036266;28;20021;-72
2022/07/05 00:10:03;;;;;;;7.18;2.45;;;;;;;;;;5030598;28;20028;-73
2022/07/05 00:12:32;;;;;;;4.60;2.20;;;;;;;;;;5034465;28;20028;-73
2022/07/05 00:14:58;;;;;;;5.82;2.20;;;;;;;;;;5033122;28;20072;-76
2022/07/05 00:17:24;;;;;;;7.40;2.33;;;;;;;;;;5034182;28;20432;-75
2022/07/05 00:19:50;;;;;;;5.35;1.80;;;;;;;;;;5038643;28;20029;-74
2022/07/05 00:22:16;;;;;;;6.63;2.00;;;;;;;;;;5035784;28;20036;-73
2022/07/05 00:24:42;;;;;;;5.43;2.08;;;;;;;;;;5033785;28;20083;-74
2022/07/05 00:27:08;;;;;;;8.57;2.10;;;;;;;;;;5036555;28;20029;-74
2022/07/05 00:29:34;;;;;;;11.07;2.30;;;;;;;;;;5038179;28;20026;-74
2022/07/05 00:32:00;;;;;;;9.98;2.28;;;;;;;;;;5040494;28;20025;-74
2022/07/05 00:34:26;;;;;;;10.98;2.40;;;;;;;;;;5038595;28;20082;-75
2022/07/05 00:36:52;;;;;;;7.50;2.30;;;;;;;;;;5035597;28;20057;-74
2022/07/05 00:39:18;;;;;;;6.35;2.28;;;;;;;;;;5035655;28;20040;-75
2022/07/05 00:41:44;;;;;;;9.80;2.30;;;;;;;;;;5035604;28;20040;-73
2022/07/05 00:44:11;;;;;;;11.60;2.47;;;;;;;;;;5034006;28;20112;-74
2022/07/05 00:46:37;;;;;;;5.13;1.83;;;;;;;;;;5036283;28;20521;-75
2022/07/05 00:49:04;;;;;;;5.80;2.28;;;;;;;;;;5036193;28;20025;-75
2022/07/05 00:51:32;;;;;;;7.85;2.00;;;;;;;;;;5037148;28;20021;-74
2022/07/05 00:53:58;;;;;;;7.07;2.60;;;;;;;;;;5089028;22;20055;-75
2022/07/05 00:56:28;;;;;;;10.15;2.10;;;;;;;;;;5067357;28;20429;-75
2022/07/05 00:58:54;;;;;;;9.98;2.15;;;;;;;;;;5073508;28;20040;-74
2022/07/05 01:01:22;;;;;;;7.65;2.50;;;;;;;;;;5063424;28;20063;-74
2022/07/05 01:03:50;;;;;;;6.80;2.38;;;;;;;;;;5081759;28;20028;-75
2022/07/05 01:06:17;;;;;;;10.88;2.72;;;;;;;;;;5062878;28;20131;-76
2022/07/05 01:08:44;;;;;;;8.07;2.30;;;;;;;;;;5062868;28;20051;-75
2022/07/05 01:11:11;;;;;;;6.30;2.60;;;;;;;;;;5062533;28;20067;-75
2022/07/05 01:13:37;;;;;;;6.78;2.08;;;;;;;;;;5080151;28;20032;-75
2022/07/05 01:16:03;;;;;;;12.60;2.40;;;;;;;;;;5061930;28;20028;-76
2022/07/05 01:18:30;;;;;;;13.68;2.67;;;;;;;;;;5080322;28;20029;-75
2022/07/05 01:20:56;;;;;;;7.53;2.55;;;;;;;;;;5080923;28;20480;-76
2022/07/05 01:23:23;;;;;;;10.48;2.35;;;;;;;;;;5081860;28;20032;-74
2022/07/05 01:25:49;;;;;;;6.30;2.15;;;;;;;;;;5092717;28;20095;-75
2022/07/05 01:28:15;;;;;;;7.05;2.55;;;;;;;;;;5099988;28;20022;-75
2022/07/05 01:30:42;;;;;;;10.40;2.42;;;;;;;;;;5099909;28;20033;-74
2022/07/05 01:33:08;;;;;;;9.90;2.78;;;;;;;;;;5091520;28;20021;-75
2022/07/05 01:35:35;;;;;;;9.27;2.60;;;;;;;;;;5083938;28;20028;-75
2022/07/05 01:38:01;;;;;;;8.32;2.60;;;;;;;;;;5064550;28;20028;-75
2022/07/05 01:40:27;;;;;;;10.88;3.10;;;;;;;;;;5085101;28;20080;-75
2022/07/05 01:42:53;;;;;;;9.73;3.00;;;;;;;;;;5092269;28;20019;-76
2022/07/05 01:45:41;;;;;;;9.57;2.50;;;;;;;;;;5093956;28;20025;-75
2022/07/05 01:48:09;;;;;;;8.77;2.80;;;;;;;;;;5092002;28;20040;-75
2022/07/05 01:50:45;;;;;;;8.30;2.45;;;;;;;;;;5077346;28;20033;-74
2022/07/05 01:53:12;;;;;;;10.77;2.88;;;;;;;;;;5095653;28;20084;-76
2022/07/05 01:55:39;;;;;;;7.03;2.85;;;;;;;;;;5093751;28;20039;-75
2022/07/05 01:58:07;;;;;;;9.73;2.72;;;;;;;;;;5087669;28;20035;-74
2022/07/05 02:00:41;;;;;;;8.80;2.92;;;;;;;;;;5087909;28;20024;-75
2022/07/05 02:03:07;;;;;;;9.20;2.60;;;;;;;;;;5079836;28;20032;-74
2022/07/05 02:05:33;;;;;;;11.93;2.85;;;;;;;;;;5079815;28;20059;-75
2022/07/05 02:07:59;;;;;;;13.18;3.40;;;;;;;;;;5079466;28;20036;-75
2022/07/05 02:10:25;;;;;;;11.27;3.05;;;;;;;;;;5081757;28;20024;-75
2022/07/05 02:12:51;;;;;;;12.23;2.67;;;;;;;;;;5090085;28;20028;-75
2022/07/05 02:15:17;;;;;;;10.07;2.60;;;;;;;;;;5087953;28;20031;-75
2022/07/05 02:17:43;;;;;;;9.43;2.70;;;;;;;;;;5083500;28;20097;-75
2022/07/05 02:20:09;;;;;;;10.23;2.97;;;;;;;;;;5081958;28;20028;-76
2022/07/05 02:22:35;;;;;;;7.72;2.85;;;;;;;;;;5079848;28;20029;-75
2022/07/05 02:25:01;;;;;;;12.63;3.17;;;;;;;;;;5076839;28;20078;-77
2022/07/05 02:27:27;;;;;;;4.43;2.40;;;;;;;;;;5078892;28;20040;-76
2022/07/05 02:29:53;;;;;;;10.70;3.00;;;;;;;;;;5079079;28;20034;-76
2022/07/05 02:32:19;;;;;;;5.60;2.97;;;;;;;;;;5080973;28;20049;-75
2022/07/05 02:34:45;;;;;;;11.98;2.95;;;;;;;;;;5084918;28;20080;-74
2022/07/05 02:37:11;;;;;;;10.07;3.00;;;;;;;;;;5071122;28;20028;-75
2022/07/05 02:39:37;;;;;;;8.35;3.00;;;;;;;;;;5098388;28;20012;-75
2022/07/05 02:42:03;;;;;;;8.23;2.70;;;;;;;;;;5099561;28;20009;-75
2022/07/05 02:44:29;;;;;;;9.32;3.55;;;;;;;;;;5099287;28;20044;-73
2022/07/05 02:46:55;;;;;;;6.93;3.28;;;;;;;;;;5099091;28;20047;-73
2022/07/05 02:49:30;;;;;;;8.77;3.00;;;;;;;;;;5098198;28;20063;-74
2022/07/05 02:51:56;;;;;;;10.95;3.10;;;;;;;;;;5090485;28;20028;-75
2022/07/05 02:54:22;;;;;;;8.60;3.17;;;;;;;;;;5079819;28;20090;-74
2022/07/05 02:56:48;;;;;;;11.73;2.97;;;;;;;;;;5061988;28;20128;-77
2022/07/05 02:59:14;;;;;;;12.00;4.03;;;;;;;;;;5060969;28;20025;-74
2022/07/05 03:01:40;;;;;;;8.90;2.97;;;;;;;;;;5081214;28;20512;-74
2022/07/05 03:04:06;;;;;;;10.60;3.33;;;;;;;;;;5081999;28;20025;-75
2022/07/05 03:06:32;;;;;;;11.40;3.40;;;;;;;;;;5089570;28;20032;-74
2022/07/05 03:08:58;;;;;;;12.85;2.97;;;;;;;;;;5098073;28;20020;-74
2022/07/05 03:11:24;;;;;;;10.73;3.17;;;;;;;;;;5097099;28;20020;-75
2022/07/05 03:13:50;;;;;;;8.88;2.97;;;;;;;;;;5101295;28;20048;-76
2022/07/05 03:16:16;;;;;;;9.73;3.78;;;;;;;;;;5101134;28;20423;-75
2022/07/05 03:18:42;;;;;;;8.57;3.40;;;;;;;;;;5103377;28;20769;-74
2022/07/05 03:21:08;;;;;;;16.20;3.92;;;;;;;;;;5104574;28;20034;-76
2022/07/05 03:23:34;;;;;;;9.82;3.38;;;;;;;;;;5099877;28;20054;-75
2022/07/05 03:26:00;;;;;;;9.55;3.33;;;;;;;;;;5099010;28;20546;-75
2022/07/05 03:28:26;;;;;;;9.98;3.20;;;;;;;;;;5102359;28;20095;-75
2022/07/05 03:30:52;;;;;;;10.43;3.17;;;;;;;;;;5105562;28;20020;-76
2022/07/05 03:33:18;;;;;;;9.85;3.78;;;;;;;;;;5102975;28;20022;-76
2022/07/05 03:35:44;;;;;;;8.88;3.42;;;;;;;;;;5099356;28;20024;-76
2022/07/05 03:38:09;;;;;;;7.78;3.38;;;;;;;;;;5095988;28;20080;-76
2022/07/05 03:40:35;;;;;;;7.03;3.72;;;;;;;;;;5096516;28;20024;-75
2022/07/05 03:43:01;;;;;;;12.57;3.90;;;;;;;;;;5079658;28;20016;-75
2022/07/05 03:45:27;;;;;;;10.65;3.88;;;;;;;;;;5100490;28;20020;-75
2022/07/05 03:47:57;;;;;;;9.68;3.65;;;;;;;;;;5096948;28;20472;-75
2022/07/05 03:50:23;;;;;;;10.68;3.78;;;;;;;;;;5096665;28;20044;-75
2022/07/05 03:52:49;;;;;;;11.27;4.10;;;;;;;;;;5097433;28;20158;-75
2022/07/05 03:55:15;;;;;;;12.70;3.92;;;;;;;;;;5102739;28;20024;-76
2022/07/05 03:57:41;;;;;;;12.35;3.83;;;;;;;;;;5084929;28;20077;-75
2022/07/05 04:00:07;;;;;;;14.35;4.18;;;;;;;;;;5103189;28;20028;-75
2022/07/05 04:02:33;;;;;;;12.82;4.10;;;;;;;;;;5080692;28;20105;-76
2022/07/05 04:04:59;;;;;;;13.23;4.22;;;;;;;;;;5100511;28;20024;-76
2022/07/05 04:07:25;;;;;;;14.63;4.15;;;;;;;;;;5097099;28;20059;-76
2022/07/05 04:09:51;;;;;;;13.80;5.70;;;;;;;;;;5092732;28;20024;-76
2022/07/05 04:12:17;;;;;;;10.75;4.75;;;;;;;;;;5092465;28;20103;-75
2022/07/05 04:14:43;;;;;;;11.80;4.40;;;;;;;;;;5074386;28;20025;-76
2022/07/05 04:17:09;;;;;;;8.75;3.67;;;;;;;;;;5092190;28;20030;-75
2022/07/05 04:19:35;;;;;;;8.02;4.10;;;;;;;;;;5092340;28;20111;-76
2022/07/05 04:22:01;;;;;;;8.13;3.83;;;;;;;;;;5074291;28;20423;-76
2022/07/05 04:24:27;;;;;;;10.23;3.78;;;;;;;;;;5092451;28;20465;-76
2022/07/05 04:26:53;;;;;;;13.45;3.65;;;;;;;;;;5092014;28;20028;-75
2022/07/05 04:29:19;;;;;;;9.30;3.80;;;;;;;;;;5074179;28;20016;-74
2022/07/05 04:31:45;;;;;;;6.10;3.30;;;;;;;;;;5092410;28;20020;-76
2022/07/05 04:34:11;;;;;;;10.43;3.95;;;;;;;;;;5093524;28;20457;-74
2022/07/05 04:36:40;;;;;;;9.60;3.25;;;;;;;;;;5095373;28;20032;-74
2022/07/05 04:39:06;;;;;;;9.63;3.72;;;;;;;;;;5096434;28;20578;-76
2022/07/05 04:41:32;;;;;;;11.75;3.72;;;;;;;;;;5092810;28;20024;-77
2022/07/05 04:43:58;;;;;;;7.90;3.10;;;;;;;;;;5074130;28;20437;-76
2022/07/05 04:46:23;;;;;;;9.13;3.63;;;;;;;;;;5074212;28;20020;-76
2022/07/05 04:48:50;;;;;;;17.15;3.55;;;;;;;;;;5097383;28;20046;-75
2022/07/05 04:51:16;;;;;;;9.75;3.30;;;;;;;;;;5080851;28;20024;-76
2022/07/05 04:53:42;;;;;;;11.45;3.65;;;;;;;;;;5062166;28;20040;-75
2022/07/05 04:56:08;;;;;;;6.10;2.70;;;;;;;;;;5078770;28;20032;-76
2022/07/05 04:58:34;;;;;;;8.43;3.88;;;;;;;;;;5082951;28;20004;-75
2022/07/05 05:01:01;;;;;;;10.57;3.80;;;;;;;;;;5090085;28;20073;-75
2022/07/05 05:03:27;;;;;;;11.82;3.22;;;;;;;;;;5093840;28;20052;-76
2022/07/05 05:05:53;;;;;;;15.63;5.63;;;;;;;;;;5083269;28;20024;-75
2022/07/05 05:08:19;;;;;;;12.75;3.58;;;;;;;;;;5081643;28;20062;-75
2022/07/05 05:10:45;;;;;;;5.63;2.80;;;;;;;;;;5080953;28;20016;-76
2022/07/05 05:13:11;;;;;;;7.10;3.08;;;;;;;;;;5087205;28;20099;-76
2022/07/05 05:15:37;;;;;;;19.52;3.45;;;;;;;;;;5092710;28;20511;-75
2022/07/05 05:18:03;;;;;;;4.03;2.35;;;;;;;;;;5114610;28;20036;-75
2022/07/05 05:20:29;;;;;;;12.27;3.50;;;;;;;;;;5117493;28;20039;-74
2022/07/05 05:22:55;;;;;;;28.50;12.00;;;;;;;;;;5116895;28;20026;-76
2022/07/05 05:25:21;;;;;;;7.32;2.70;;;;;;;;;;5115183;28;20032;-74
2022/07/05 05:27:48;;;;;;;8.60;2.70;;;;;;;;;;5115769;28;20024;-74
2022/07/05 05:30:15;;;;;;;9.88;2.60;;;;;;;;;;5113308;28;20024;-76
2022/07/05 05:32:41;;;;;;;10.90;2.70;;;;;;;;;;5083432;28;20043;-77
2022/07/05 05:35:07;;;;;;;8.27;2.65;;;;;;;;;;5095796;28;20492;-76
2022/07/05 05:37:53;;;;;;;9.27;2.15;;;;;;;;;;5096482;28;20055;-79
2022/07/05 05:40:19;;;;;;;11.27;2.60;;;;;;;;;;5095817;28;20039;-76
2022/07/05 05:42:45;;;;;;;10.07;2.40;;;;;;;;;;5095743;28;20447;-74
2022/07/05 05:45:11;;;;;;;10.88;2.70;;;;;;;;;;5095427;28;20660;-74
2022/07/05 05:47:45;;;;;;;11.57;2.97;;;;;;;;;;5095443;28;20027;-75
2022/07/05 05:50:10;;;;;;;15.52;6.85;;;;;;;;;;5095050;28;20336;-73
2022/07/05 05:52:36;;;;;;;5.70;2.13;;;;;;;;;;5094797;28;20020;-74
2022/07/05 05:55:05;;;;;;;5.50;1.80;;;;;;;;;;5095314;28;20020;-77
2022/07/05 05:57:31;;;;;;;9.63;2.40;;;;;;;;;;5095515;28;20463;-73
2022/07/05 05:59:57;;;;;;;11.85;2.60;;;;;;;;;;5095168;28;20107;-75
2022/07/05 06:02:22;;;;;;;5.22;1.90;;;;;;;;;;5094727;28;20031;-76
2022/07/05 06:04:48;;;;;;;5.75;2.17;;;;;;;;;;5095297;28;20056;-76
2022/07/05 06:07:14;;;;;;;5.45;2.25;;;;;;;;;;5094656;28;20480;-75
2022/07/05 06:09:40;;;;;;;6.43;2.10;;;;;;;;;;5095429;28;20047;-77
2022/07/05 06:12:06;;;;;;;6.15;2.08;;;;;;;;;;5095717;28;20035;-76
2022/07/05 06:14:32;;;;;;;5.18;2.10;;;;;;;;;;5095437;28;20439;-77
2022/07/05 06:16:58;;;;;;;7.40;2.13;;;;;;;;;;5091311;28;20040;-77
2022/07/05 06:19:24;;;;;;;9.25;2.05;;;;;;;;;;5088259;28;20024;-76
2022/07/05 06:21:50;;;;;;;16.65;2.28;;;;;;;;;;5096377;28;20024;-75
2022/07/05 06:24:16;;;;;;;8.80;2.10;;;;;;;;;;5094418;28;20043;-75
2022/07/05 06:26:42;;;;;;;7.88;1.88;;;;;;;;;;5094901;28;20028;-75
2022/07/05 06:29:08;;;;;;;8.68;2.08;;;;;;;;;;5094746;28;20028;-75
2022/07/05 06:31:34;;;;;;;15.23;1.90;;;;;;;;;;5095372;28;20016;-75
2022/07/05 06:34:00;;;;;;;9.27;1.92;;;;;;;;;;5094476;28;20380;-75
2022/07/05 06:36:26;;;;;;;10.05;1.60;;;;;;;;;;5094290;28;20390;-76
2022/07/05 06:38:52;;;;;;;5.07;2.00;;;;;;;;;;5097736;28;20503;-75
2022/07/05 06:41:24;;;;;;;8.35;1.67;;;;;;;;;;5110999;28;20068;-77
2022/07/05 06:43:50;;;;;;;10.48;2.08;;;;;;;;;;5098922;28;20016;-74
2022/07/05 06:46:16;;;;;;;5.95;1.55;;;;;;;;;;5099804;28;20088;-75
2022/07/05 06:48:42;;;;;;;9.77;2.25;;;;;;;;;;5098018;28;20035;-74
2022/07/05 06:51:08;;;;;;;4.22;1.50;;;;;;;;;;5098381;28;20385;-77
2022/07/05 06:53:35;;;;;;;12.20;2.30;;;;;;;;;;5099440;28;20115;-75
2022/07/05 06:56:01;;;;;;;8.63;1.80;;;;;;;;;;5100635;28;20115;-74
2022/07/05 06:58:26;;;;;;;12.00;1.77;;;;;;;;;;5080124;28;20117;-75
2022/07/05 07:00:53;;;;;;;8.50;1.73;;;;;;;;;;5096107;28;20035;-75
2022/07/05 07:03:19;;;;;;;6.70;1.67;;;;;;;;;;5095878;28;20033;-74
2022/07/05 07:05:45;;;;;;;5.75;1.92;;;;;;;;;;5096465;28;20031;-76
2022/07/05 07:11:03;;;;;;;7.88;1.52;;;;;;;;;;5063595;28;20031;-77
2022/07/05 07:13:29;;;;;;;8.02;1.98;;;;;;;;;;5094473;28;20048;-77
2022/07/05 07:15:55;;;;;;;12.15;1.90;;;;;;;;;;5094351;28;20056;-76
2022/07/05 07:18:21;;;;;;;11.73;1.90;;;;;;;;;;5095077;28;20024;-77
2022/07/05 07:20:47;;;;;;;8.30;1.70;;;;;;;;;;5076423;28;20032;-75
2022/07/05 07:23:13;;;;;;;9.52;1.50;;;;;;;;;;5093533;28;20529;-77
2022/07/05 07:25:39;;;;;;;6.45;1.80;;;;;;;;;;5075782;28;20526;-75
2022/07/05 07:28:06;;;;;;;6.18;1.63;;;;;;;;;;5094487;28;20077;-75
2022/07/05 07:30:32;;;;;;;8.57;1.60;;;;;;;;;;5093832;28;20531;-75
2022/07/05 07:32:59;;;;;;;7.88;1.50;;;;;;;;;;5075686;28;20024;-75
2022/07/05 07:35:25;;;;;;;9.93;2.17;;;;;;;;;;5094279;28;20020;-78
2022/07/05 07:37:51;;;;;;;5.53;1.40;;;;;;;;;;5075685;28;20414;-75
2022/07/05 07:40:17;;;;;;;11.48;2.00;;;;;;;;;;5094248;28;20036;-76
2022/07/05 07:42:43;;;;;;;10.57;1.98;;;;;;;;;;5095215;28;20034;-77
2022/07/05 07:45:10;;;;;;;6.97;1.60;;;;;;;;;;5093671;28;20059;-75
2022/07/05 07:47:36;;;;;;;4.25;1.63;;;;;;;;;;5094025;28;20097;-76
2022/07/05 07:50:03;;;;;;;3.45;1.45;;;;;;;;;;5095228;28;20024;-76
2022/07/05 07:52:30;;;;;;;9.73;1.60;;;;;;;;;;5098378;28;20496;-75
2022/07/05 07:54:56;;;;;;;9.27;1.98;;;;;;;;;;5113794;28;20027;-75
2022/07/05 07:57:22;;;;;;;11.15;1.58;;;;;;;;;;5094230;28;20087;-75
2022/07/05 07:59:48;;;;;;;4.68;1.67;;;;;;;;;;5117619;28;20054;-74
2022/07/05 08:02:14;;;;;;;10.10;1.98;;;;;;;;;;5116991;28;20095;-74
2022/07/05 08:04:40;;;;;;;4.53;0.90;;;;;;;;;;5117294;28;20012;-74
2022/07/05 08:07:06;;;;;;;3.85;1.17;;;;;;;;;;5089106;28;20401;-75
2022/07/05 08:09:32;;;;;;;3.40;1.23;;;;;;;;;;5095065;28;20027;-75
2022/07/05 08:11:58;;;;;;;3.25;1.08;;;;;;;;;;5094584;28;20028;-76
2022/07/05 08:14:24;;;;;;;6.50;1.25;;;;;;;;;;5094562;28;20055;-75
2022/07/05 08:16:51;;;;;;;4.40;1.25;;;;;;;;;;5094807;28;20079;-75
2022/07/05 08:22:03;;;;;;;3.80;1.10;;;;;;;;;;5108217;28;20027;-76
2022/07/05 08:24:29;;;;;;;4.43;1.23;;;;;;;;;;5104230;28;20098;-74
2022/07/05 08:26:55;;;;;;;2.65;1.20;;;;;;;;;;5102441;28;20394;-74
2022/07/05 08:29:21;;;;;;;7.93;1.40;;;;;;;;;;5083661;28;20059;-74
2022/07/05 08:31:49;;;;;;;6.70;1.80;;;;;;;;;;5093143;28;20020;-75
2022/07/05 08:34:17;;;;;;;6.00;1.20;;;;;;;;;;5092091;28;20100;-76
2022/07/05 08:36:43;;;;;;;6.30;1.20;;;;;;;;;;5092271;28;20477;-75
2022/07/05 08:39:09;;;;;;;5.10;1.02;;;;;;;;;;5075478;28;20123;-76
2022/07/05 08:41:40;;;;;;;6.70;1.10;;;;;;;;;;5097062;28;20088;-75
2022/07/05 08:44:06;;;;;;;2.45;0.98;;;;;;;;;;5093217;28;20422;-78
2022/07/05 08:46:33;;;;;;;4.38;0.85;;;;;;;;;;5093514;28;20365;-76
2022/07/05 08:49:01;;;;;;;3.80;0.90;;;;;;;;;;5097326;28;20074;-76
2022/07/05 08:51:27;;;;;;;10.40;1.30;;;;;;;;;;5097395;28;20031;-75
2022/07/05 08:53:55;;;;;;;2.15;0.75;;;;;;;;;;5096389;28;20028;-74
2022/07/05 08:56:21;;;;;;;6.20;1.20;;;;;;;;;;5096465;28;20062;-75
2022/07/05 08:58:49;;;;;;;4.55;1.10;;;;;;;;;;5096212;28;20518;-77
2022/07/05 09:01:15;;;;;;;5.18;0.90;;;;;;;;;;5096764;28;20556;-77
2022/07/05 09:03:46;;;;;;;4.43;0.90;;;;;;;;;;5096672;28;20028;-75
2022/07/05 09:06:13;;;;;;;6.55;0.93;;;;;;;;;;5096095;28;20428;-77
2022/07/05 09:08:40;;;;;;;2.78;0.70;;;;;;;;;;5097358;28;20099;-77
2022/07/05 09:11:14;;;;;;;5.20;1.10;;;;;;;;;;5096658;28;20606;-77
2022/07/05 09:13:41;;;;;;;5.37;1.20;;;;;;;;;;5096568;28;20056;-76
2022/07/05 09:16:07;;;;;;;2.05;0.77;;;;;;;;;;5096443;28;20293;-75
2022/07/05 09:18:40;;;;;;;6.30;0.80;;;;;;;;;;5097183;28;20028;-75
2022/07/05 09:21:20;;;;;;;3.15;0.80;;;;;;;;;;5097225;28;20055;-77
2022/07/05 09:23:54;;;;;;;10.65;0.80;;;;;;;;;;5097249;28;20016;-76
2022/07/05 09:26:20;;;;;;;2.20;0.80;;;;;;;;;;5096904;28;20048;-78
2022/07/05 09:28:56;;;;;;;4.05;0.70;;;;;;;;;;5096555;28;20035;-74
2022/07/05 09:31:29;;;;;;;9.35;6.07;;;;;;;;;;5096694;28;20028;-76
2022/07/05 09:33:57;;;;;;;4.47;1.30;;;;;;;;;;5097011;28;20020;-76
2022/07/05 09:36:24;;;;;;;8.48;1.20;;;;;;;;;;5096626;28;20342;-77
2022/07/05 09:38:51;;;;;;;4.25;1.25;;;;;;;;;;5100442;28;20057;-78
2022/07/05 09:41:17;;;;;;;4.95;0.80;;;;;;;;;;5080014;28;20027;-77
2022/07/05 09:43:44;;;;;;;7.95;0.90;;;;;;;;;;5099467;28;20036;-76
2022/07/05 09:46:10;;;;;;;3.15;0.75;;;;;;;;;;5096550;28;20024;-74
2022/07/05 09:48:36;;;;;;;4.07;0.80;;;;;;;;;;5097220;28;20024;-75
2022/07/05 09:51:06;;;;;;;3.60;0.75;;;;;;;;;;5097411;28;20040;-76
2022/07/05 09:53:51;;;;;;;3.03;0.68;;;;;;;;;;5097514;28;20067;-74
2022/07/05 09:56:17;;;;;;;;;;;;;;;;;;5098143;28;20024;-76
2022/07/05 09:58:43;;;;;;;2.25;1.30;;;;;;;;;;5096285;28;19907;-76
2022/07/05 10:01:24;;;;;;;3.33;1.02;;;;;;;;;;5098241;28;20095;-77
2022/07/05 10:03:58;;;;;;;9.05;0.85;;;;;;;;;;5096343;28;20031;-77
2022/07/05 10:06:24;;;;;;;5.53;0.75;;;;;;;;;;5077850;28;20024;-76
2022/07/05 10:08:51;;;;;;;2.88;0.75;;;;;;;;;;5096795;28;20027;-76
2022/07/05 10:11:29;;;;;;;5.07;1.00;;;;;;;;;;5096541;28;20110;-78
2022/07/05 10:13:55;;;;;;;3.95;0.88;;;;;;;;;;5095802;28;20024;-77
2022/07/05 10:16:22;;;;;;;2.95;0.80;;;;;;;;;;5095277;28;20052;-77
2022/07/05 10:18:54;;;;;;;3.53;0.90;;;;;;;;;;5096020;28;20464;-76
2022/07/05 10:21:20;;;;;;;2.28;0.77;;;;;;;;;;5110219;28;20039;-77
2022/07/05 10:23:56;;;;;;;3.35;0.85;;;;;;;;;;5107356;28;20060;-76
2022/07/05 10:26:23;;;;;;;2.67;0.73;;;;;;;;;;5096595;28;20422;-77
2022/07/05 10:28:52;;;;;;;2.90;0.88;;;;;;;;;;5100690;28;20054;-78
2022/07/05 10:31:18;;;;;;;6.70;0.88;;;;;;;;;;5107537;28;20024;-76
2022/07/05 10:33:45;;;;;;;2.40;0.70;;;;;;;;;;5101839;28;20027;-75
2022/07/05 10:36:11;;;;;;;7.68;0.82;;;;;;;;;;5104136;28;20028;-76
2022/07/05 10:38:38;;;;;;;3.80;0.80;;;;;;;;;;5089808;28;20032;-75
2022/07/05 10:41:06;;;;;;;5.07;0.70;;;;;;;;;;5105446;28;20035;-77
2022/07/05 10:43:32;;;;;;;2.25;0.75;;;;;;;;;;5094441;28;20035;-75
2022/07/05 10:45:59;;;;;;;2.13;0.68;;;;;;;;;;5093995;28;20024;-77
2022/07/05 10:48:26;;;;;;;6.47;0.85;;;;;;;;;;5075961;28;20104;-76
2022/07/05 10:50:52;;;;;;;4.47;0.93;;;;;;;;;;5076310;28;20058;-76
2022/07/05 10:53:20;;;;;;;4.95;0.75;;;;;;;;;;5094397;28;20028;-76
2022/07/05 10:55:53;;;;;;;1.50;0.40;;;;;;;;;;5095492;28;20024;-75
2022/07/05 10:58:20;;;;;;;3.20;0.90;;;;;;;;;;5079984;28;20081;-76
2022/07/05 11:00:48;;;;;;;2.97;0.63;;;;;;;;;;5077081;28;20040;-75
2022/07/05 11:03:34;;;;;;;3.47;1.00;;;;;;;;;;5076971;28;20091;-75
2022/07/05 11:06:00;;;;;;;4.78;1.00;;;;;;;;;;5076163;28;20123;-75
2022/07/05 11:08:27;;;;;;;6.15;1.88;;;;;;;;;;5077509;28;20025;-75
2022/07/05 11:11:10;;;;;;;4.28;1.70;;;;;;;;;;5059608;28;20025;-76
2022/07/05 11:13:36;;;;;;;5.78;1.00;;;;;;;;;;5077954;28;20447;-76
2022/07/05 11:16:21;;;;;;;8.65;4.75;;;;;;;;;;5060309;28;20051;-75
2022/07/05 11:18:47;;;;;;;4.80;1.02;;;;;;;;;;5060664;28;20020;-75
2022/07/05 11:21:18;;;;;;;3.40;1.20;;;;;;;;;;5076789;28;20128;-76
2022/07/05 11:23:44;;;;;;;1.25;0.60;;;;;;;;;;5076041;28;20094;-76
2022/07/05 11:26:11;;;;;;;2.35;1.13;;;;;;;;;;5075287;28;20709;-75
2022/07/05 11:28:45;;;;;;;6.28;1.25;;;;;;;;;;5075975;28;20021;-76
2022/07/05 11:31:11;;;;;;;5.07;1.13;;;;;;;;;;5075678;28;20166;-76
2022/07/05 11:33:37;;;;;;;2.80;0.73;;;;;;;;;;5057201;28;20032;-75
2022/07/05 11:36:04;;;;;;;6.25;0.80;;;;;;;;;;5075126;28;20033;-75
2022/07/05 11:38:31;;;;;;;4.35;0.77;;;;;;;;;;5072005;28;20105;-75
2022/07/05 11:41:11;;;;;;;3.75;0.75;;;;;;;;;;5072097;28;20437;-76
2022/07/05 11:43:37;;;;;;;7.78;1.92;;;;;;;;;;5054309;28;20393;-77
2022/07/05 11:46:02;;;;;;;6.65;0.70;;;;;;;;;;5071892;28;20024;-78
2022/07/05 11:48:29;;;;;;;7.53;1.00;;;;;;;;;;5054229;28;20028;-79
2022/07/05 11:50:56;;;;;;;2.55;0.80;;;;;;;;;;5071998;28;20048;-77
2022/07/05 11:53:30;;;;;;;4.68;1.30;;;;;;;;;;5071062;28;20051;-75
2022/07/05 11:56:00;;;;;;;4.33;1.10;;;;;;;;;;5070912;28;20070;-76
2022/07/05 11:58:32;;;;;;;4.10;1.33;;;;;;;;;;5055808;28;20021;-76
2022/07/05 12:00:59;;;;;;;6.30;2.38;;;;;;;;;;5072953;28;20021;-77
2022/07/05 12:03:25;;;;;;;5.97;2.55;;;;;;;;;;5061173;28;20035;-77
2022/07/05 12:05:52;;;;;;;2.38;0.80;;;;;;;;;;5072840;28;20028;-76
2022/07/05 12:08:24;;;;;;;2.22;0.73;;;;;;;;;;5071647;28;20405;-76
2022/07/05 12:13:48;;;;;;;3.30;1.20;;;;;;;;;;5074502;28;20036;-75
2022/07/05 12:16:15;;;;;;;2.00;0.70;;;;;;;;;;5075641;28;20120;-77
2022/07/05 12:18:51;;;;;;;3.03;1.10;;;;;;;;;;5076280;28;20465;-76
2022/07/05 12:21:20;;;;;;;5.45;0.90;;;;;;;;;;5074147;28;20024;-77
2022/07/05 12:23:46;;;;;;;4.85;0.95;;;;;;;;;;5054367;28;20050;-75
2022/07/05 12:26:13;;;;;;;2.80;0.80;;;;;;;;;;5054173;28;20166;-75
2022/07/05 12:28:39;;;;;;;4.70;1.13;;;;;;;;;;5073715;28;20039;-76
2022/07/05 12:31:15;;;;;;;3.50;0.80;;;;;;;;;;5076097;28;20083;-76
2022/07/05 12:33:41;;;;;;;3.65;0.77;;;;;;;;;;5044550;28;20029;-76
2022/07/05 12:36:12;;;;;;;3.92;1.15;;;;;;;;;;5058261;28;20105;-75
2022/07/05 12:38:37;;;;;;;5.05;0.70;;;;;;;;;;5074121;28;20048;-74
2022/07/05 12:41:03;;;;;;;5.30;0.90;;;;;;;;;;5055055;28;20040;-74
2022/07/05 12:43:29;;;;;;;2.55;0.60;;;;;;;;;;5072913;28;20132;-75
2022/07/05 12:46:05;;;;;;;6.85;1.13;;;;;;;;;;5075693;28;20099;-75
2022/07/05 12:48:36;;;;;;;7.55;1.00;;;;;;;;;;5041979;28;20025;-75
2022/07/05 12:51:03;;;;;;;3.67;1.10;;;;;;;;;;5041974;28;20097;-75
2022/07/05 12:59:04;;;;;;;5.00;1.15;;;;;;;;;;5054324;28;20440;-75
2022/07/05 13:01:34;;;;;;;3.42;1.02;;;;;;;;;;5068727;28;20036;-74
2022/07/05 13:04:19;;;;;;;4.85;0.82;;;;;;;;;;5068324;28;20032;-75
2022/07/05 13:06:45;;;;;;;;;;;;;;;;;;5052851;28;20565;-73
2022/07/05 13:09:12;;;;;;;5.22;1.27;;;;;;;;;;5053177;28;19944;-75
2022/07/05 13:11:38;;;;;;;3.22;1.15;;;;;;;;;;5052741;28;20372;-74
2022/07/05 13:14:04;;;;;;;5.82;1.05;;;;;;;;;;5052104;28;20029;-74
2022/07/05 13:16:30;;;;;;;3.83;1.00;;;;;;;;;;5053069;28;20033;-75
2022/07/05 13:19:06;;;;;;;10.40;1.48;;;;;;;;;;5050304;28;20025;-73
2022/07/05 13:21:32;;;;;;;12.68;1.50;;;;;;;;;;5052223;28;20055;-74
2022/07/05 13:23:58;;;;;;;6.40;2.10;;;;;;;;;;5053226;28;20029;-74
2022/07/05 13:26:24;;;;;;;6.28;1.45;;;;;;;;;;5051889;28;20029;-74
2022/07/05 13:28:49;;;;;;;3.13;1.02;;;;;;;;;;5053333;28;20099;-76
2022/07/05 13:31:15;;;;;;;7.15;1.13;;;;;;;;;;5054173;28;20025;-76
2022/07/05 13:33:41;;;;;;;3.72;1.13;;;;;;;;;;5055682;28;20048;-76
2022/07/05 13:36:07;;;;;;;11.40;1.25;;;;;;;;;;5057062;28;20079;-75
2022/07/05 13:38:33;;;;;;;6.97;1.38;;;;;;;;;;5056799;28;20051;-75
2022/07/05 13:40:59;;;;;;;5.68;1.10;;;;;;;;;;5057198;28;20033;-75
2022/07/05 13:43:25;;;;;;;6.88;2.85;;;;;;;;;;5057249;28;20139;-75
2022/07/05 13:45:51;;;;;;;6.63;1.25;;;;;;;;;;5056867;28;20686;-74
2022/07/05 13:48:17;;;;;;;4.75;1.02;;;;;;;;;;5053773;28;20013;-75
2022/07/05 13:50:43;;;;;;;6.55;1.10;;;;;;;;;;5037341;28;20021;-76
2022/07/05 13:53:09;;;;;;;5.10;1.70;;;;;;;;;;5035791;28;20013;-75
2022/07/05 13:55:35;;;;;;;5.20;1.38;;;;;;;;;;5036650;28;20029;-74
2022/07/05 13:58:01;;;;;;;6.82;1.40;;;;;;;;;;5037531;28;20405;-74
2022/07/05 14:00:27;;;;;;;4.43;1.25;;;;;;;;;;5038038;28;20053;-76
2022/07/05 14:02:53;;;;;;;6.75;1.15;;;;;;;;;;5037403;28;20025;-74
2022/07/05 14:05:20;;;;;;;4.05;1.17;;;;;;;;;;5035787;28;20033;-74
2022/07/05 14:07:46;;;;;;;6.13;1.23;;;;;;;;;;5036642;28;20238;-73
2022/07/05 14:10:12;;;;;;;8.70;1.17;;;;;;;;;;5036666;28;20076;-74
2022/07/05 14:12:38;;;;;;;6.15;1.23;;;;;;;;;;5044173;28;20029;-74
2022/07/05 14:15:04;;;;;;;5.68;1.25;;;;;;;;;;5038684;28;20029;-74
2022/07/05 14:17:30;;;;;;;6.80;1.55;;;;;;;;;;5037000;28;20029;-75
2022/07/05 14:19:56;;;;;;;4.65;1.50;;;;;;;;;;5038123;28;20029;-75
2022/07/05 14:22:22;;;;;;;6.00;1.58;;;;;;;;;;5036796;28;20061;-75
2022/07/05 14:24:48;;;;;;;5.93;1.98;;;;;;;;;;5040500;28;20037;-77
2022/07/05 14:27:14;;;;;;;12.30;2.90;;;;;;;;;;5040108;28;20034;-72
2022/07/05 14:29:40;;;;;;;7.55;1.60;;;;;;;;;;5038877;28;20112;-72
2022/07/05 14:32:06;;;;;;;4.93;1.80;;;;;;;;;;5038110;28;20026;-76
2022/07/05 14:34:32;;;;;;;10.20;2.47;;;;;;;;;;5036264;28;20029;-75
2022/07/05 14:36:59;;;;;;;5.07;2.20;;;;;;;;;;5037065;28;20022;-76
2022/07/05 14:39:25;;;;;;;8.68;2.03;;;;;;;;;;5039778;28;20032;-75
2022/07/05 14:41:51;;;;;;;5.10;1.20;;;;;;;;;;5038888;28;20037;-74
2022/07/05 14:44:17;;;;;;;8.15;1.65;;;;;;;;;;5036952;28;20073;-76
2022/07/05 14:46:43;;;;;;;10.18;2.92;;;;;;;;;;5036784;28;20531;-74
2022/07/05 14:49:09;;;;;;;5.68;1.67;;;;;;;;;;5035557;28;20026;-74
2022/07/05 14:51:35;;;;;;;7.72;1.75;;;;;;;;;;5034756;28;20021;-74
2022/07/05 14:54:00;;;;;;;11.85;4.57;;;;;;;;;;5035479;28;20029;-74